Albert J Ellis Airport Jacksonville US
ICAO: KOAJ
IATA: OAJ
Category: Medium
Scheduled Services: No

Elevation: 94 ft
TransAlt. 18000 ft.

Airport Communications:
WILMINGTON APP/DEP:121.4
AWOS 3:124.475
CTAF/UNICOM:123

KOAJ Zoom In..

If you have problems with the map follow the link
https://www.worldairports.se/pages/airport.php?
ICAO=KOAJ

Runways:

(A) RW 05 length 7100 ft width 150 ft
ILS 108.70 / hdg 52

(B) RW 23 length 7100 ft width 150 ft
---- / hdg 232

Location; KOAJ
Day. 21 / Time. 17.56 Zulu
* Altimeter: 30.14
* Temperature: 16° c. 60.8°f.
* Wind from: 320° Speed 11 kn with Gusts up to 17 kn.
Dewpoint: 01° c.
Visibility: 10 Statute Miles.
Clouds: Clear (automated report).

KOAJ 211756Z AUTO 32011G17KT 260V350 10SM CLR 16/01 A3014 RMK AO2 SLP211 T01560006 10156 20089 58009


Wind From 320°
Speed 11 kn.

 
 
jpsmedia.com for Web Design worldairports.se 2018   terms of use